Time;durP1;ratioP1;P1;durP2;ratioP2;P2;SDS_P1;SDS_P2;PMS_P1;PMS_P2;Temp;Humidity;BMP_temperature;BMP_pressure;BME280_temperature;BME280_humidity;BME280_pressure;Samples;Min_cycle;Max_cycle;Signal;HPM_P1;HPM_P2
2022/03/21 00:00:38;;;;;;;;;;;;;;;12.89;56.55;102613.91;1017469;29;642;-74
2022/03/21 00:01:29;;;;;;;;;;;;;;;12.86;56.63;102622.06;1017623;29;647;-74
2022/03/21 00:02:19;;;;;;;;;;;;;;;12.86;56.49;102622.94;1015389;29;663;-74
2022/03/21 00:03:10;;;;;;;;;;;;;;;12.86;57.20;102625.63;1017565;29;721;-74
2022/03/21 00:04:00;;;;;;;;;;;;;;;12.86;56.86;102617.59;1017074;29;1634;-74
2022/03/21 00:04:51;;;;;;;;;;;;;;;12.86;56.98;102625.63;1015403;29;710;-74
2022/03/21 00:05:42;;;;;;;;;;;;;;;12.85;57.22;102618.53;1017592;29;619;-74
2022/03/21 00:06:32;;;;;;;;;;;;;;;12.88;57.00;102622.00;1017697;29;654;-74
2022/03/21 00:07:23;;;;;;;;;;;;;;;12.84;56.91;102624.81;1017540;29;682;-74
2022/03/21 00:08:13;;;;;;;;;;;;;;;12.85;56.81;102615.84;1017587;29;1194;-74
2022/03/21 00:09:03;;;;;;;;;;;;;;;12.85;56.97;102610.50;1017147;29;694;-74
2022/03/21 00:09:54;;;;;;;;;;;;;;;12.85;57.02;102618.53;1016846;29;662;-74
2022/03/21 00:10:44;;;;;;;;;;;;;;;12.84;56.53;102627.50;1016951;29;1958;-76
2022/03/21 00:11:35;;;;;;;;;;;;;;;12.85;56.30;102620.34;1017080;29;651;-78
2022/03/21 00:12:25;;;;;;;;;;;;;;;12.84;56.68;102616.78;1016972;29;682;-74
2022/03/21 00:13:16;;;;;;;;;;;;;;;12.88;56.20;102622.00;1016880;29;671;-72
2022/03/21 00:14:06;;;;;;;;;;;;;;;12.85;56.21;102617.66;1017074;29;718;-72
2022/03/21 00:14:56;;;;;;;;;;;;;;;12.84;56.29;102621.28;1017542;29;619;-73
2022/03/21 00:15:47;;;;;;;;;;;;;;;12.84;56.53;102630.16;1013600;29;694;-73
2022/03/21 00:16:37;;;;;;;;;;;;;;;12.85;56.95;102625.69;1013120;29;643;-73
2022/03/21 00:17:28;;;;;;;;;;;;;;;12.83;56.33;102625.75;1013064;29;535;-73
2022/03/21 00:18:19;;;;;;;;;;;;;;;12.85;56.60;102621.19;1013094;29;639;-73
2022/03/21 00:19:09;;;;;;;;;;;;;;;12.84;56.50;102624.81;1013113;29;632;-73
2022/03/21 00:20:00;;;;;;;;;;;;;;;12.85;56.51;102620.34;1013609;29;853;-73
2022/03/21 00:20:50;;;;;;;;;;;;;;;12.85;56.80;102633.72;1013201;29;624;-72
2022/03/21 00:21:40;;;;;;;;;;;;;;;12.85;56.19;102628.38;1013081;29;1070;-73
2022/03/21 00:22:31;;;;;;;;;;;;;;;12.83;56.22;102628.44;1013607;29;714;-73
2022/03/21 00:23:21;;;;;;;;;;;;;;;12.85;56.38;102626.56;1013075;29;703;-72
2022/03/21 00:24:12;;;;;;;;;;;;;;;12.84;56.58;102631.97;1012485;29;695;-73
2022/03/21 00:25:02;;;;;;;;;;;;;;;12.83;57.20;102633.78;1013064;29;687;-74
2022/03/21 00:25:52;;;;;;;;;;;;;;;12.83;56.60;102633.78;1013022;29;630;-73
2022/03/21 00:26:43;;;;;;;;;;;;;;;12.83;56.52;102630.22;1013154;29;627;-73
2022/03/21 00:27:33;;;;;;;;;;;;;;;12.83;56.52;102633.78;1012970;29;1153;-73
2022/03/21 00:28:24;;;;;;;;;;;;;;;12.84;57.11;102634.66;1013024;29;648;-73
2022/03/21 00:29:14;;;;;;;;;;;;;;;12.82;57.22;102634.72;1013137;29;690;-73
2022/03/21 00:30:05;;;;;;;;;;;;;;;12.82;57.20;102624.00;1012944;29;714;-73
2022/03/21 00:30:55;;;;;;;;;;;;;;;12.84;56.31;102635.53;1012399;29;1966;-73
2022/03/21 00:31:46;;;;;;;;;;;;;;;12.83;56.96;102633.78;1013162;29;870;-73
2022/03/21 00:32:37;;;;;;;;;;;;;;;12.83;56.51;102631.09;1013002;29;599;-74
2022/03/21 00:33:27;;;;;;;;;;;;;;;12.83;56.53;102628.44;1012650;29;774;-73
2022/03/21 00:34:19;;;;;;;;;;;;;;;12.83;56.40;102633.78;1013041;29;663;-73
2022/03/21 00:35:09;;;;;;;;;;;;;;;12.83;56.22;102628.44;1016044;29;1650;-73
2022/03/21 00:36:00;;;;;;;;;;;;;;;12.83;56.23;102624.88;1016949;29;892;-73
2022/03/21 00:36:50;;;;;;;;;;;;;;;12.84;56.71;102635.53;1017614;29;1567;-73
2022/03/21 00:37:41;;;;;;;;;;;;;;;12.83;57.05;102627.56;1017835;29;674;-73
2022/03/21 00:38:31;;;;;;;;;;;;;;;12.83;56.57;102632.91;1021338;29;670;-73
2022/03/21 00:39:21;;;;;;;;;;;;;;;12.81;56.88;102630.31;1021418;29;643;-73
2022/03/21 00:40:12;;;;;;;;;;;;;;;12.81;56.38;102632.97;1018073;29;744;-73
2022/03/21 00:41:02;;;;;;;;;;;;;;;12.81;56.91;102635.66;1017773;29;643;-74
2022/03/21 00:41:53;;;;;;;;;;;;;;;12.82;56.55;102629.38;1017837;29;669;-75
2022/03/21 00:42:43;;;;;;;;;;;;;;;12.80;57.02;102633.03;1021349;29;694;-75
2022/03/21 00:43:34;;;;;;;;;;;;;;;12.80;57.21;102627.69;1021374;29;741;-75
2022/03/21 00:44:24;;;;;;;;;;;;;;;12.80;56.70;102625.88;1017740;29;717;-74
2022/03/21 00:45:15;;;;;;;;;;;;;;;12.80;56.97;102633.91;1017648;29;611;-75
2022/03/21 00:46:05;;;;;;;;;;;;;;;12.79;57.32;102625.97;1017737;29;699;-73
2022/03/21 00:46:55;;;;;;;;;;;;;;;12.79;56.20;102626.81;1017664;29;1081;-74
2022/03/21 00:47:46;;;;;;;;;;;;;;;12.81;56.89;102626.75;1017407;29;650;-74
2022/03/21 00:48:36;;;;;;;;;;;;;;;12.79;57.06;102629.50;1017798;29;679;-72
2022/03/21 00:49:27;;;;;;;;;;;;;;;12.78;56.62;102625.09;1017637;29;659;-74
2022/03/21 00:50:17;;;;;;;;;;;;;;;12.80;56.31;102625.03;1018382;29;847;-73
2022/03/21 00:51:07;;;;;;;;;;;;;;;12.80;57.25;102628.56;1017755;29;690;-73
2022/03/21 00:51:59;;;;;;;;;;;;;;;12.79;56.40;102629.50;1017787;29;718;-73
2022/03/21 00:52:49;;;;;;;;;;;;;;;12.79;57.33;102631.31;1017707;29;655;-73
2022/03/21 00:53:40;;;;;;;;;;;;;;;12.78;56.47;102630.44;1017707;29;635;-73
2022/03/21 00:54:30;;;;;;;;;;;;;;;12.78;57.15;102627.75;1017688;29;1571;-73
2022/03/21 00:55:21;;;;;;;;;;;;;;;12.79;57.28;102634.84;1016177;29;820;-73
2022/03/21 00:56:11;;;;;;;;;;;;;;;12.78;56.95;102625.09;1018327;29;670;-73
2022/03/21 00:57:01;;;;;;;;;;;;;;;12.78;57.18;102622.41;1018260;29;666;-73
2022/03/21 00:57:52;;;;;;;;;;;;;;;12.78;56.91;102621.53;1016208;29;698;-73
2022/03/21 00:58:42;;;;;;;;;;;;;;;12.77;56.87;102623.34;1018411;29;611;-73
2022/03/21 00:59:33;;;;;;;;;;;;;;;12.78;56.19;102625.09;1018245;29;686;-73
2022/03/21 01:00:26;;;;;;;;;;;;;;;12.78;56.50;102627.75;1018226;29;646;-73
2022/03/21 01:01:16;;;;;;;;;;;;;;;12.78;56.73;102626.88;1018248;29;615;-73
2022/03/21 01:02:08;;;;;;;;;;;;;;;12.76;56.82;102626.97;1015743;29;647;-73
2022/03/21 01:02:59;;;;;;;;;;;;;;;12.77;56.48;102628.69;1018170;29;1610;-73
2022/03/21 01:03:49;;;;;;;;;;;;;;;12.79;56.70;102631.31;1019502;29;703;-73
2022/03/21 01:04:40;;;;;;;;;;;;;;;12.77;56.49;102625.16;1020828;29;667;-74
2022/03/21 01:05:30;;;;;;;;;;;;;;;12.75;57.27;102627.91;1018318;29;640;-74
2022/03/21 01:06:22;;;;;;;;;;;;;;;12.76;56.47;102626.97;1018226;29;670;-73
2022/03/21 01:07:12;;;;;;;;;;;;;;;12.76;56.56;102626.97;1018314;29;693;-73
2022/03/21 01:08:03;;;;;;;;;;;;;;;12.78;56.49;102629.56;1018152;29;1191;-72
2022/03/21 01:08:53;;;;;;;;;;;;;;;12.78;56.92;102632.25;1017698;29;670;-71
2022/03/21 01:09:43;;;;;;;;;;;;;;;12.76;57.11;102634.13;1017641;29;746;-71
2022/03/21 01:10:34;;;;;;;;;;;;;;;12.76;56.51;102624.28;1017584;29;643;-71
2022/03/21 01:11:24;;;;;;;;;;;;;;;12.77;56.62;102628.69;1017661;29;630;-71
2022/03/21 01:12:15;;;;;;;;;;;;;;;12.76;56.43;102632.31;1017705;29;674;-70
2022/03/21 01:13:05;;;;;;;;;;;;;;;12.76;56.95;102631.44;1017762;29;635;-71
2022/03/21 01:13:56;;;;;;;;;;;;;;;12.75;56.95;102625.22;1017543;29;619;-72
2022/03/21 01:14:46;;;;;;;;;;;;;;;12.75;56.74;102627.03;1014045;29;1590;-72
2022/03/21 01:15:36;;;;;;;;;;;;;;;12.76;56.50;102631.44;1013658;29;639;-72
2022/03/21 01:16:27;;;;;;;;;;;;;;;12.75;57.20;102635.91;1017718;29;722;-72
2022/03/21 01:17:17;;;;;;;;;;;;;;;12.77;57.09;102633.19;1017367;29;647;-72
2022/03/21 01:18:08;;;;;;;;;;;;;;;12.75;56.36;102630.56;1013742;29;655;-71
2022/03/21 01:18:58;;;;;;;;;;;;;;;12.75;57.28;102635.06;1017816;29;647;-71
2022/03/21 01:19:49;;;;;;;;;;;;;;;12.74;56.39;102630.63;1017286;29;874;-71
2022/03/21 01:20:39;;;;;;;;;;;;;;;12.74;57.13;102636.84;1013853;29;654;-72
2022/03/21 01:21:29;;;;;;;;;;;;;;;12.73;56.70;102631.56;1013738;29;662;-76
2022/03/21 01:22:20;;;;;;;;;;;;;;;12.73;56.72;102632.44;1014219;29;718;-74
2022/03/21 01:23:10;;;;;;;;;;;;;;;12.72;56.98;102636.06;1017776;29;1705;-73
2022/03/21 01:24:01;;;;;;;;;;;;;;;12.73;56.92;102637.78;1016056;29;671;-74
2022/03/21 01:24:51;;;;;;;;;;;;;;;12.73;57.21;102635.13;1018202;29;619;-74
2022/03/21 01:25:41;;;;;;;;;;;;;;;12.73;56.98;102640.47;1018196;29;624;-74
2022/03/21 01:26:32;;;;;;;;;;;;;;;12.73;56.52;102640.47;1018195;29;643;-74
2022/03/21 01:27:22;;;;;;;;;;;;;;;12.72;57.22;102638.72;1015781;29;745;-74
2022/03/21 01:28:13;;;;;;;;;;;;;;;12.73;56.24;102637.78;1018112;29;678;-74
2022/03/21 01:29:03;;;;;;;;;;;;;;;12.74;57.14;102642.22;1018105;29;694;-74
2022/03/21 01:29:54;;;;;;;;;;;;;;;12.75;57.32;102638.59;1019655;29;742;-74
2022/03/21 01:30:44;;;;;;;;;;;;;;;12.73;56.57;102640.47;1019329;29;1923;-74
2022/03/21 01:31:35;;;;;;;;;;;;;;;12.73;56.45;102637.78;1018132;29;682;-73
2022/03/21 01:32:26;;;;;;;;;;;;;;;12.73;56.85;102643.16;1015989;29;699;-73
2022/03/21 01:33:16;;;;;;;;;;;;;;;12.72;57.29;102644.09;1018187;29;639;-73
2022/03/21 01:34:07;;;;;;;;;;;;;;;12.72;56.48;102643.25;1017911;29;1599;-73
2022/03/21 01:34:57;;;;;;;;;;;;;;;12.70;57.18;102640.63;1017550;29;611;-73
2022/03/21 01:35:48;;;;;;;;;;;;;;;12.72;56.82;102643.25;1017505;29;631;-73
2022/03/21 01:36:38;;;;;;;;;;;;;;;12.72;57.14;102644.09;1018082;29;627;-73
2022/03/21 01:37:28;;;;;;;;;;;;;;;12.71;56.49;102645.06;1017569;29;612;-73
2022/03/21 01:38:19;;;;;;;;;;;;;;;12.71;56.58;102639.69;1017352;29;1710;-73
2022/03/21 01:39:09;;;;;;;;;;;;;;;12.70;56.85;102648.66;1017621;29;621;-73
2022/03/21 01:40:00;;;;;;;;;;;;;;;12.71;56.90;102639.69;1017485;29;682;-73
2022/03/21 01:40:50;;;;;;;;;;;;;;;12.70;57.35;102645.97;1017472;29;683;-73
2022/03/21 01:41:41;;;;;;;;;;;;;;;12.69;56.96;102646.91;1017489;29;630;-73
2022/03/21 01:42:31;;;;;;;;;;;;;;;12.71;57.15;102650.41;1021142;29;640;-73
2022/03/21 01:43:22;;;;;;;;;;;;;;;12.69;56.60;102646.06;1021275;29;702;-73
2022/03/21 01:44:12;;;;;;;;;;;;;;;12.69;56.77;102643.38;1017612;29;627;-73
2022/03/21 01:45:02;;;;;;;;;;;;;;;12.69;56.51;102646.91;1017560;29;643;-73
2022/03/21 01:45:53;;;;;;;;;;;;;;;12.71;56.81;102655.75;1017112;29;690;-73
2022/03/21 01:46:44;;;;;;;;;;;;;;;12.70;56.54;102647.78;1017501;29;612;-73
2022/03/21 01:47:34;;;;;;;;;;;;;;;12.69;56.45;102641.56;1017518;29;619;-73
2022/03/21 01:48:25;;;;;;;;;;;;;;;12.70;57.00;102642.44;1016993;29;813;-73
2022/03/21 01:49:16;;;;;;;;;;;;;;;12.68;56.70;102647.84;1017530;29;690;-74
2022/03/21 01:50:07;;;;;;;;;;;;;;;12.68;57.58;102641.63;1017536;29;670;-74
2022/03/21 01:50:57;;;;;;;;;;;;;;;12.68;56.86;102649.66;1017458;29;1899;-73
2022/03/21 01:51:48;;;;;;;;;;;;;;;12.68;57.11;102645.19;1017564;29;639;-74
2022/03/21 01:52:38;;;;;;;;;;;;;;;12.68;56.93;102650.53;1017405;29;605;-74
2022/03/21 01:55:48;;;;;;;;;;;;;;;12.68;57.03;102647.84;1018051;29;623;-74
2022/03/21 01:56:38;;;;;;;;;;;;;;;12.68;56.63;102650.53;1016893;29;602;-74
2022/03/21 01:57:29;;;;;;;;;;;;;;;12.66;56.58;102647.06;1016980;29;714;-74
2022/03/21 01:58:20;;;;;;;;;;;;;;;12.65;57.42;102645.31;1016828;29;683;-74
2022/03/21 01:59:11;;;;;;;;;;;;;;;12.66;56.84;102648.84;1017112;29;683;-74
2022/03/21 02:00:01;;;;;;;;;;;;;;;12.67;56.47;102642.56;1016324;29;686;-72
2022/03/21 02:00:52;;;;;;;;;;;;;;;12.66;57.23;102644.38;1017011;29;690;-72
2022/03/21 02:01:42;;;;;;;;;;;;;;;12.67;56.69;102645.25;1016741;29;627;-72
2022/03/21 02:02:33;;;;;;;;;;;;;;;12.67;56.75;102647.94;1016899;29;662;-73
2022/03/21 02:03:24;;;;;;;;;;;;;;;12.66;56.61;102647.06;1017530;29;713;-72
2022/03/21 02:04:14;;;;;;;;;;;;;;;12.66;57.10;102649.72;1017478;29;687;-72
2022/03/21 02:05:05;;;;;;;;;;;;;;;12.66;57.09;102644.38;1016981;29;644;-72
2022/03/21 02:05:55;;;;;;;;;;;;;;;12.65;57.28;102645.31;1016910;29;643;-72
2022/03/21 02:06:45;;;;;;;;;;;;;;;12.64;57.35;102643.56;1016883;29;755;-72
2022/03/21 02:07:36;;;;;;;;;;;;;;;12.64;57.43;102642.72;1016969;29;675;-73
2022/03/21 02:08:27;;;;;;;;;;;;;;;12.64;56.70;102643.56;1013453;29;682;-73
2022/03/21 02:09:17;;;;;;;;;;;;;;;12.65;56.66;102645.31;1013626;29;651;-72
2022/03/21 02:10:08;;;;;;;;;;;;;;;12.64;56.37;102648.94;1013568;29;818;-73
2022/03/21 02:11:00;;;;;;;;;;;;;;;12.64;56.68;102654.28;1017657;29;1903;-72
2022/03/21 02:11:50;;;;;;;;;;;;;;;12.63;56.47;102657.00;1017088;29;687;-72
2022/03/21 02:12:41;;;;;;;;;;;;;;;12.63;57.69;102646.31;1014835;29;1587;-72
2022/03/21 02:13:31;;;;;;;;;;;;;;;12.63;57.44;102651.66;1017442;29;629;-72
2022/03/21 02:14:21;;;;;;;;;;;;;;;12.63;57.31;102646.31;1017353;29;663;-73
2022/03/21 02:15:12;;;;;;;;;;;;;;;12.62;57.38;102649.94;1017528;29;691;-73
2022/03/21 02:16:02;;;;;;;;;;;;;;;12.63;56.50;102649.00;1017358;29;670;-73
2022/03/21 02:16:53;;;;;;;;;;;;;;;12.62;57.13;102644.56;1016756;29;690;-73
2022/03/21 02:17:43;;;;;;;;;;;;;;;12.62;57.18;102648.13;1017470;29;638;-73
2022/03/21 02:18:33;;;;;;;;;;;;;;;12.62;56.55;102645.44;1017312;29;788;-73
2022/03/21 02:19:24;;;;;;;;;;;;;;;12.63;56.64;102640.97;1017930;29;673;-73
2022/03/21 02:20:15;;;;;;;;;;;;;;;12.63;56.91;102651.66;1017424;29;666;-73
2022/03/21 02:21:05;;;;;;;;;;;;;;;12.60;57.36;102644.63;1017291;29;709;-73
2022/03/21 02:21:55;;;;;;;;;;;;;;;12.61;57.48;102637.50;1017356;29;654;-73
2022/03/21 02:22:46;;;;;;;;;;;;;;;12.61;56.94;102641.03;1017318;29;628;-73
2022/03/21 02:23:36;;;;;;;;;;;;;;;12.61;57.30;102637.50;1017414;29;618;-75
2022/03/21 02:24:27;;;;;;;;;;;;;;;12.62;56.54;102645.44;1017460;29;646;-75
2022/03/21 02:25:17;;;;;;;;;;;;;;;12.60;57.22;102641.97;1017977;29;760;-75
2022/03/21 02:26:08;;;;;;;;;;;;;;;12.61;57.51;102649.06;1017431;29;694;-75
2022/03/21 02:26:58;;;;;;;;;;;;;;;12.60;56.69;102639.28;1017487;29;631;-76
2022/03/21 02:27:48;;;;;;;;;;;;;;;12.60;57.33;102627.72;1016718;29;1125;-76
2022/03/21 02:28:39;;;;;;;;;;;;;;;12.61;56.49;102642.84;1017444;29;666;-76
2022/03/21 02:29:29;;;;;;;;;;;;;;;12.61;56.94;102641.03;1017301;29;639;-75
2022/03/21 02:30:20;;;;;;;;;;;;;;;12.61;57.10;102638.34;1017494;29;627;-76
2022/03/21 02:31:10;;;;;;;;;;;;;;;12.59;56.82;102637.56;1017438;29;650;-76
2022/03/21 02:32:00;;;;;;;;;;;;;;;12.60;57.09;102641.09;1021088;29;702;-73
2022/03/21 02:32:51;;;;;;;;;;;;;;;12.59;57.35;102640.22;1017145;29;706;-73
2022/03/21 02:33:41;;;;;;;;;;;;;;;12.59;57.25;102645.56;1012881;29;623;-73
2022/03/21 02:34:32;;;;;;;;;;;;;;;12.59;56.74;102648.25;1016727;29;1552;-73
2022/03/21 02:35:22;;;;;;;;;;;;;;;12.60;57.53;102643.78;1017945;29;665;-72
2022/03/21 02:36:13;;;;;;;;;;;;;;;12.59;56.79;102645.56;1017928;29;666;-73
2022/03/21 02:37:03;;;;;;;;;;;;;;;12.58;57.16;102643.84;1017866;29;654;-73
2022/03/21 02:37:53;;;;;;;;;;;;;;;12.58;56.89;102643.84;1017971;29;610;-73
2022/03/21 02:38:44;;;;;;;;;;;;;;;12.58;57.24;102649.19;1015853;29;687;-73
2022/03/21 02:39:34;;;;;;;;;;;;;;;12.57;56.47;102636.75;1017960;29;643;-73
2022/03/21 02:40:25;;;;;;;;;;;;;;;12.59;56.95;102647.38;1016793;29;643;-74
2022/03/21 02:41:15;;;;;;;;;;;;;;;12.57;56.98;102650.13;1017901;29;654;-74
2022/03/21 02:42:05;;;;;;;;;;;;;;;12.57;56.82;102647.44;1017892;29;678;-75
2022/03/21 02:42:56;;;;;;;;;;;;;;;12.57;57.28;102652.78;1015809;29;651;-74
2022/03/21 02:43:46;;;;;;;;;;;;;;;12.57;56.74;102650.13;1017444;29;635;-75
2022/03/21 02:44:37;;;;;;;;;;;;;;;12.56;57.50;102642.16;1017835;29;646;-75
2022/03/21 02:45:27;;;;;;;;;;;;;;;12.54;57.16;102644.91;1015575;29;608;-75
2022/03/21 02:46:18;;;;;;;;;;;;;;;12.55;57.20;102638.63;1017884;29;670;-75
2022/03/21 02:47:08;;;;;;;;;;;;;;;12.55;56.90;102638.63;1017893;29;630;-74
2022/03/21 02:47:59;;;;;;;;;;;;;;;12.57;56.85;102641.22;1017952;29;651;-74
2022/03/21 02:48:49;;;;;;;;;;;;;;;12.56;56.39;102642.16;1015482;29;714;-74
2022/03/21 02:49:40;;;;;;;;;;;;;;;12.55;57.51;102652.00;1015660;29;628;-74
2022/03/21 02:50:31;;;;;;;;;;;;;;;12.55;57.34;102651.13;1015946;29;635;-74
2022/03/21 02:51:21;;;;;;;;;;;;;;;12.55;57.48;102652.00;1015935;29;674;-75
2022/03/21 02:52:12;;;;;;;;;;;;;;;12.54;56.98;102647.56;1017940;29;670;-75
2022/03/21 02:53:02;;;;;;;;;;;;;;;12.54;57.14;102650.25;1015504;29;1634;-74
2022/03/21 02:53:52;;;;;;;;;;;;;;;12.54;56.48;102644.91;1017884;29;694;-74
2022/03/21 02:54:43;;;;;;;;;;;;;;;12.53;56.76;102648.53;1017641;29;1602;-74
2022/03/21 02:55:33;;;;;;;;;;;;;;;12.54;56.70;102650.25;1017832;29;618;-74
2022/03/21 02:56:24;;;;;;;;;;;;;;;12.54;57.02;102647.56;1017931;29;690;-74
2022/03/21 02:57:14;;;;;;;;;;;;;;;12.54;56.76;102652.09;1017844;29;650;-74
2022/03/21 02:58:04;;;;;;;;;;;;;;;12.55;56.86;102648.44;1017383;29;639;-75
2022/03/21 02:58:55;;;;;;;;;;;;;;;12.53;56.41;102645.88;1017810;29;720;-74
2022/03/21 02:59:45;;;;;;;;;;;;;;;12.51;57.01;102643.25;1014974;29;648;-74
2022/03/21 03:00:36;;;;;;;;;;;;;;;12.51;57.16;102645.94;1017669;29;655;-75
2022/03/21 03:01:26;;;;;;;;;;;;;;;12.53;57.31;102645.88;1017737;29;639;-74
2022/03/21 03:02:17;;;;;;;;;;;;;;;12.51;56.58;102650.41;1017796;29;686;-73
2022/03/21 03:03:07;;;;;;;;;;;;;;;12.51;56.34;102648.63;1018004;29;608;-73
2022/03/21 03:03:58;;;;;;;;;;;;;;;12.52;57.01;102652.16;1017712;29;615;-74
2022/03/21 03:04:48;;;;;;;;;;;;;;;12.52;56.95;102654.81;1015848;29;691;-75
2022/03/21 03:05:38;;;;;;;;;;;;;;;12.52;56.81;102649.47;1017703;29;674;-76
2022/03/21 03:06:29;;;;;;;;;;;;;;;12.51;56.69;102651.28;1017761;29;635;-75
2022/03/21 03:07:19;;;;;;;;;;;;;;;12.52;57.11;102652.16;1017960;29;741;-76
2022/03/21 03:08:10;;;;;;;;;;;;;;;12.54;57.08;102655.59;1015477;29;1219;-76
2022/03/21 03:09:00;;;;;;;;;;;;;;;12.51;56.43;102647.75;1017309;29;797;-76
2022/03/21 03:09:50;;;;;;;;;;;;;;;12.50;56.49;102656.69;1017168;29;667;-74
2022/03/21 03:10:41;;;;;;;;;;;;;;;12.49;57.10;102650.47;1017119;29;1952;-74
2022/03/21 03:11:31;;;;;;;;;;;;;;;12.49;56.76;102661.19;1017299;29;654;-74
2022/03/21 03:12:22;;;;;;;;;;;;;;;12.49;56.49;102652.28;1017166;29;659;-73
2022/03/21 03:13:12;;;;;;;;;;;;;;;12.50;56.54;102656.69;1017845;29;701;-73
2022/03/21 03:14:02;;;;;;;;;;;;;;;12.50;57.37;102654.91;1017217;29;697;-73
2022/03/21 03:14:53;;;;;;;;;;;;;;;12.50;57.35;102656.69;1017206;29;643;-76
2022/03/21 03:15:43;;;;;;;;;;;;;;;12.50;57.05;102662.03;1017233;29;567;-76
2022/03/21 03:16:34;;;;;;;;;;;;;;;12.49;57.30;102655.81;1017126;29;631;-74
2022/03/21 03:17:24;;;;;;;;;;;;;;;12.49;56.96;102652.28;1017346;29;631;-75
2022/03/21 03:18:15;;;;;;;;;;;;;;;12.48;57.10;102659.44;1017191;29;627;-77
2022/03/21 03:19:05;;;;;;;;;;;;;;;12.48;56.85;102667.47;1017733;29;670;-73
2022/03/21 03:19:55;;;;;;;;;;;;;;;12.48;56.50;102654.09;1017245;29;627;-75
2022/03/21 03:20:47;;;;;;;;;;;;;;;12.49;56.99;102665.66;1017062;29;718;-73
2022/03/21 03:21:37;;;;;;;;;;;;;;;12.48;56.52;102663.91;1016948;29;1183;-72
2022/03/21 03:22:28;;;;;;;;;;;;;;;12.48;57.10;102655.91;1015410;29;1038;-71
2022/03/21 03:23:18;;;;;;;;;;;;;;;12.46;56.59;102658.63;1017258;29;1117;-72
2022/03/21 03:24:08;;;;;;;;;;;;;;;12.48;57.17;102658.56;1014995;29;1104;-73
2022/03/21 03:24:59;;;;;;;;;;;;;;;12.46;57.15;102663.97;1020842;29;1093;-74
2022/03/21 03:25:49;;;;;;;;;;;;;;;12.46;56.62;102660.44;1021335;29;1053;-72
2022/03/21 03:26:40;;;;;;;;;;;;;;;12.46;56.83;102653.28;1017142;29;1140;-73
2022/03/21 03:27:33;;;;;;;;;;;;;;;12.47;56.66;102657.69;1015630;29;1112;-73
2022/03/21 03:28:24;;;;;;;;;;;;;;;12.46;57.22;102655.97;1017616;29;1203;-73
2022/03/21 03:29:14;;;;;;;;;;;;;;;12.46;57.26;102655.97;1020225;29;1064;-71
2022/03/21 03:30:04;;;;;;;;;;;;;;;12.46;56.41;102660.44;1018512;29;1112;-70
2022/03/21 03:30:55;;;;;;;;;;;;;;;12.47;57.27;102662.19;1014730;29;1914;-70
2022/03/21 03:31:45;;;;;;;;;;;;;;;12.48;57.07;102666.59;1015749;29;1314;-71
2022/03/21 03:32:36;;;;;;;;;;;;;;;12.45;57.17;102662.25;1015829;29;1087;-72
2022/03/21 03:33:26;;;;;;;;;;;;;;;12.46;56.96;102663.09;1014533;29;1117;-71
2022/03/21 03:34:17;;;;;;;;;;;;;;;12.46;57.36;102666.66;1016503;29;1086;-71
2022/03/21 03:35:07;;;;;;;;;;;;;;;12.44;57.03;102663.19;1014616;29;1148;-72
2022/03/21 03:35:57;;;;;;;;;;;;;;;12.45;57.28;102658.69;1016530;29;1112;-72
2022/03/21 03:36:48;;;;;;;;;;;;;;;12.45;57.19;102662.25;1014837;29;1112;-72
2022/03/21 03:37:38;;;;;;;;;;;;;;;12.45;56.90;102664.91;1017566;29;1100;-71
2022/03/21 03:38:29;;;;;;;;;;;;;;;12.46;56.75;102665.78;1017769;29;1142;-71
2022/03/21 03:39:19;;;;;;;;;;;;;;;12.44;56.95;102660.50;1017561;29;1101;-71
2022/03/21 03:40:09;;;;;;;;;;;;;;;12.45;57.09;102664.03;1015004;29;1069;-71
2022/03/21 03:41:00;;;;;;;;;;;;;;;12.43;57.16;102664.09;1016834;29;1325;-71
2022/03/21 03:41:50;;;;;;;;;;;;;;;12.46;57.32;102668.47;1016274;29;619;-71
2022/03/21 03:42:41;;;;;;;;;;;;;;;12.45;57.27;102664.03;1017394;29;686;-72
2022/03/21 03:43:31;;;;;;;;;;;;;;;12.45;56.61;102666.72;1013300;29;643;-72
2022/03/21 03:44:25;;;;;;;;;;;;;;;12.44;56.98;102667.66;1012778;29;683;-71
2022/03/21 03:45:16;;;;;;;;;;;;;;;12.43;56.61;102666.78;1012729;29;648;-71
2022/03/21 03:46:06;;;;;;;;;;;;;;;12.42;57.30;102665.03;1012475;29;719;-71
2022/03/21 03:46:57;;;;;;;;;;;;;;;12.42;57.18;102673.06;1012752;29;694;-71
2022/03/21 03:47:48;;;;;;;;;;;;;;;12.42;57.52;102665.03;1012486;29;645;-72
2022/03/21 03:48:38;;;;;;;;;;;;;;;12.42;56.70;102669.53;1012650;29;694;-72
2022/03/21 03:49:29;;;;;;;;;;;;;;;12.44;56.96;102664.97;1012670;29;640;-72
2022/03/21 03:50:19;;;;;;;;;;;;;;;12.42;57.11;102670.38;1012549;29;691;-72
2022/03/21 03:51:10;;;;;;;;;;;;;;;12.44;56.59;102670.31;1012572;29;1894;-71
2022/03/21 03:52:00;;;;;;;;;;;;;;;12.43;56.70;102673.94;1012532;29;648;-71
2022/03/21 03:52:51;;;;;;;;;;;;;;;12.43;56.88;102671.25;1012587;29;663;-71
2022/03/21 03:53:41;;;;;;;;;;;;;;;12.42;57.23;102672.19;1012770;29;647;-70
2022/03/21 03:54:31;;;;;;;;;;;;;;;12.41;56.54;102673.13;1012687;29;616;-70
2022/03/21 03:55:22;;;;;;;;;;;;;;;12.41;57.11;102668.66;1013761;29;698;-69
2022/03/21 03:56:12;;;;;;;;;;;;;;;12.41;56.33;102676.66;1013104;29;709;-69
2022/03/21 03:57:03;;;;;;;;;;;;;;;12.41;56.46;102679.34;1013129;29;616;-70
2022/03/21 03:57:53;;;;;;;;;;;;;;;12.42;57.05;102673.06;1012635;29;644;-69
2022/03/21 03:58:43;;;;;;;;;;;;;;;12.42;56.43;102666.84;1013750;29;773;-70
2022/03/21 03:59:34;;;;;;;;;;;;;;;12.42;56.62;102669.53;1012642;29;644;-70
2022/03/21 04:00:24;;;;;;;;;;;;;;;12.41;56.37;102676.66;1012666;29;651;-69
2022/03/21 04:01:15;;;;;;;;;;;;;;;12.42;57.00;102669.53;1013192;29;623;-70
2022/03/21 04:02:05;;;;;;;;;;;;;;;12.41;57.06;102671.31;1013079;29;639;-69
2022/03/21 04:04:05;;;;;;;;;;;;;;;12.40;56.95;102671.38;1016866;29;760;-70
2022/03/21 04:04:55;;;;;;;;;;;;;;;12.40;56.47;102671.38;1015595;29;726;-70
2022/03/21 04:05:45;;;;;;;;;;;;;;;12.39;56.63;102670.50;1017606;29;941;-70
2022/03/21 04:06:36;;;;;;;;;;;;;;;12.39;56.47;102669.66;1015406;29;671;-70
2022/03/21 04:07:26;;;;;;;;;;;;;;;12.40;57.19;102666.03;1017588;29;639;-70
2022/03/21 04:08:17;;;;;;;;;;;;;;;12.39;56.77;102667.84;1015315;29;1189;-70
2022/03/21 04:09:07;;;;;;;;;;;;;;;12.39;56.83;102669.66;1017295;29;680;-71
2022/03/21 04:09:57;;;;;;;;;;;;;;;12.39;56.87;102669.66;1016706;29;619;-70
2022/03/21 04:10:48;;;;;;;;;;;;;;;12.39;56.73;102669.66;1016495;29;1940;-70
2022/03/21 04:11:38;;;;;;;;;;;;;;;12.38;56.61;102673.25;1016888;29;789;-71
2022/03/21 04:12:29;;;;;;;;;;;;;;;12.39;56.55;102672.31;1017086;29;591;-70
2022/03/21 04:13:19;;;;;;;;;;;;;;;12.38;56.21;102671.44;1017072;29;682;-71
2022/03/21 04:14:09;;;;;;;;;;;;;;;12.38;57.04;102673.25;1017265;29;1180;-73
2022/03/21 04:15:00;;;;;;;;;;;;;;;12.38;56.64;102670.59;1015040;29;1088;-72
2022/03/21 04:15:50;;;;;;;;;;;;;;;12.36;56.61;102667.97;1016855;29;1069;-72
2022/03/21 04:16:44;;;;;;;;;;;;;;;12.37;57.04;102664.38;1017498;29;1068;-71
2022/03/21 04:17:34;;;;;;;;;;;;;;;12.39;56.98;102669.66;1014655;29;1203;-71
2022/03/21 04:18:26;;;;;;;;;;;;;;;12.37;56.85;102666.16;1015859;29;1061;-71
2022/03/21 04:19:16;;;;;;;;;;;;;;;12.37;56.59;102667.03;1017378;29;1073;-71
2022/03/21 04:20:07;;;;;;;;;;;;;;;12.37;56.84;102668.84;1016271;29;1057;-71
2022/03/21 04:20:57;;;;;;;;;;;;;;;12.36;56.79;102667.13;1016847;29;1237;-71
2022/03/21 04:21:48;;;;;;;;;;;;;;;12.37;56.92;102666.16;1017559;29;686;-70
2022/03/21 04:22:38;;;;;;;;;;;;;;;12.36;57.10;102664.47;1017059;29;642;-69
2022/03/21 04:23:29;;;;;;;;;;;;;;;12.35;56.56;102668.06;1016978;29;611;-70
2022/03/21 04:24:19;;;;;;;;;;;;;;;12.35;57.28;102666.25;1020600;29;701;-70
2022/03/21 04:25:10;;;;;;;;;;;;;;;12.35;56.48;102668.06;1020250;29;589;-70
2022/03/21 04:26:01;;;;;;;;;;;;;;;12.36;57.05;102664.47;1017017;29;674;-70
2022/03/21 04:26:51;;;;;;;;;;;;;;;12.35;56.44;102673.41;1017062;29;642;-70
2022/03/21 04:27:42;;;;;;;;;;;;;;;12.35;57.20;102676.97;1016826;29;1157;-70
2022/03/21 04:28:32;;;;;;;;;;;;;;;12.35;56.55;102676.97;1016968;29;650;-70
2022/03/21 04:29:23;;;;;;;;;;;;;;;12.36;56.35;102677.81;1017020;29;677;-69